Terminal Aerodrome Forecast
Issued by NWS Wakefield, VA

Home | Current Version | Previous Version | Text Only | Print | Product List | Glossary On
Versions: 1 2 3 4 5 6 7 8 9 10 11 12 13 14 15
552
FTUS41 KAKQ 271139
TAFRIC
TAF
KRIC 271139Z 2712/2812 16005KT P6SM BKN150
     FM271700 19010KT P6SM BKN120
     FM280000 14003KT P6SM BKN100=

USA.gov is the U.S. government's official web portal to all federal, state and local government web resources and services.